sensor_id;sensor_type;location;lat;lon;timestamp;pressure;altitude;pressure_sealevel;temperature;humidity
7662;BME280;30314;48.184;11.510;2023-01-25T00:02:08;97366.13;;;-0.43;100.00
7662;BME280;30314;48.184;11.510;2023-01-25T00:04:45;97352.50;;;-0.45;100.00
7662;BME280;30314;48.184;11.510;2023-01-25T00:07:13;97363.69;;;-0.45;100.00
7662;BME280;30314;48.184;11.510;2023-01-25T00:09:41;97361.38;;;-0.54;100.00
7662;BME280;30314;48.184;11.510;2023-01-25T00:12:10;97343.56;;;-0.58;100.00
7662;BME280;30314;48.184;11.510;2023-01-25T00:14:40;97369.09;;;-0.46;100.00
7662;BME280;30314;48.184;11.510;2023-01-25T00:17:10;97372.94;;;-0.57;100.00
7662;BME280;30314;48.184;11.510;2023-01-25T00:19:38;97369.97;;;-0.54;100.00
7662;BME280;30314;48.184;11.510;2023-01-25T00:22:06;97333.09;;;-0.79;100.00
7662;BME280;30314;48.184;11.510;2023-01-25T00:24:34;97360.84;;;-0.50;100.00
7662;BME280;30314;48.184;11.510;2023-01-25T00:27:03;97353.13;;;-0.58;100.00
7662;BME280;30314;48.184;11.510;2023-01-25T00:29:31;97368.81;;;-0.51;100.00
7662;BME280;30314;48.184;11.510;2023-01-25T00:32:35;97369.78;;;-0.52;100.00
7662;BME280;30314;48.184;11.510;2023-01-25T00:35:06;97375.53;;;-0.42;100.00
7662;BME280;30314;48.184;11.510;2023-01-25T00:37:40;97371.16;;;-0.57;100.00
7662;BME280;30314;48.184;11.510;2023-01-25T00:40:11;97363.72;;;-0.75;100.00
7662;BME280;30314;48.184;11.510;2023-01-25T00:42:41;97364.59;;;-0.67;100.00
7662;BME280;30314;48.184;11.510;2023-01-25T00:45:10;97368.63;;;-0.65;100.00
7662;BME280;30314;48.184;11.510;2023-01-25T00:47:40;97356.28;;;-0.63;100.00
7662;BME280;30314;48.184;11.510;2023-01-25T00:50:10;97358.78;;;-0.69;100.00
7662;BME280;30314;48.184;11.510;2023-01-25T00:52:39;97360.75;;;-0.72;100.00
7662;BME280;30314;48.184;11.510;2023-01-25T00:55:07;97354.88;;;-0.65;100.00
7662;BME280;30314;48.184;11.510;2023-01-25T00:57:36;97358.88;;;-0.63;100.00
7662;BME280;30314;48.184;11.510;2023-01-25T01:00:05;97356.19;;;-0.69;100.00
7662;BME280;30314;48.184;11.510;2023-01-25T01:02:34;97360.47;;;-0.62;100.00
7662;BME280;30314;48.184;11.510;2023-01-25T01:05:04;97359.16;;;-0.73;100.00
7662;BME280;30314;48.184;11.510;2023-01-25T01:07:33;97358.88;;;-0.63;100.00
7662;BME280;30314;48.184;11.510;2023-01-25T01:10:02;97360.16;;;-0.74;100.00
7662;BME280;30314;48.184;11.510;2023-01-25T01:12:30;97358.25;;;-0.80;100.00
7662;BME280;30314;48.184;11.510;2023-01-25T01:14:58;97367.03;;;-0.81;100.00
7662;BME280;30314;48.184;11.510;2023-01-25T01:17:27;97356.03;;;-0.83;100.00
7662;BME280;30314;48.184;11.510;2023-01-25T01:19:55;97361.03;;;-0.81;100.00
7662;BME280;30314;48.184;11.510;2023-01-25T01:22:24;97358.09;;;-0.78;100.00
7662;BME280;30314;48.184;11.510;2023-01-25T01:24:53;97358.63;;;-0.83;100.00
7662;BME280;30314;48.184;11.510;2023-01-25T01:27:21;97343.41;;;-0.86;100.00
7662;BME280;30314;48.184;11.510;2023-01-25T01:29:49;97346.63;;;-0.69;100.00
7662;BME280;30314;48.184;11.510;2023-01-25T01:32:18;97339.91;;;-0.63;100.00
7662;BME280;30314;48.184;11.510;2023-01-25T01:34:49;97340.50;;;-0.61;100.00
7662;BME280;30314;48.184;11.510;2023-01-25T01:37:17;97341.97;;;-0.59;100.00
7662;BME280;30314;48.184;11.510;2023-01-25T01:39:47;97332.19;;;-0.72;100.00
7662;BME280;30314;48.184;11.510;2023-01-25T01:42:15;97334.78;;;-0.72;100.00
7662;BME280;30314;48.184;11.510;2023-01-25T01:44:46;97340.25;;;-0.66;100.00
7662;BME280;30314;48.184;11.510;2023-01-25T01:47:18;97336.69;;;-0.65;100.00
7662;BME280;30314;48.184;11.510;2023-01-25T01:49:54;97337.84;;;-0.68;100.00
7662;BME280;30314;48.184;11.510;2023-01-25T01:52:30;97336.41;;;-0.71;100.00
7662;BME280;30314;48.184;11.510;2023-01-25T01:55:05;97344.56;;;-0.74;100.00
7662;BME280;30314;48.184;11.510;2023-01-25T01:57:43;97344.72;;;-0.75;100.00
7662;BME280;30314;48.184;11.510;2023-01-25T02:00:18;97340.59;;;-0.69;100.00
7662;BME280;30314;48.184;11.510;2023-01-25T02:02:49;97338.28;;;-0.64;100.00
7662;BME280;30314;48.184;11.510;2023-01-25T02:05:23;97331.41;;;-0.72;100.00
7662;BME280;30314;48.184;11.510;2023-01-25T02:07:54;97344.94;;;-0.77;100.00
7662;BME280;30314;48.184;11.510;2023-01-25T02:10:25;97351.19;;;-0.71;100.00
7662;BME280;30314;48.184;11.510;2023-01-25T02:12:55;97340.53;;;-0.76;100.00
7662;BME280;30314;48.184;11.510;2023-01-25T02:15:27;97330.41;;;-0.86;100.00
7662;BME280;30314;48.184;11.510;2023-01-25T02:17:55;97331.25;;;-0.86;100.00
7662;BME280;30314;48.184;11.510;2023-01-25T02:20:32;97340.88;;;-0.79;100.00
7662;BME280;30314;48.184;11.510;2023-01-25T02:23:08;97337.38;;;-0.72;100.00
7662;BME280;30314;48.184;11.510;2023-01-25T02:25:42;97340.25;;;-0.66;100.00
7662;BME280;30314;48.184;11.510;2023-01-25T02:28:13;97330.03;;;-0.68;100.00
7662;BME280;30314;48.184;11.510;2023-01-25T02:30:43;97333.19;;;-0.73;100.00
7662;BME280;30314;48.184;11.510;2023-01-25T02:33:15;97333.19;;;-0.88;100.00
7662;BME280;30314;48.184;11.510;2023-01-25T02:35:45;97337.94;;;-0.91;100.00
7662;BME280;30314;48.184;11.510;2023-01-25T02:38:17;97333.38;;;-0.89;100.00
7662;BME280;30314;48.184;11.510;2023-01-25T02:40:56;97332.84;;;-0.84;100.00
7662;BME280;30314;48.184;11.510;2023-01-25T02:43:32;97337.13;;;-0.77;100.00
7662;BME280;30314;48.184;11.510;2023-01-25T02:46:08;97328.81;;;-0.87;100.00
7662;BME280;30314;48.184;11.510;2023-01-25T02:48:43;97306.34;;;-0.95;100.00
7662;BME280;30314;48.184;11.510;2023-01-25T02:51:12;97320.38;;;-0.74;100.00
7662;BME280;30314;48.184;11.510;2023-01-25T02:53:41;97323.78;;;-0.74;100.00
7662;BME280;30314;48.184;11.510;2023-01-25T02:56:10;97315.63;;;-0.71;100.00
7662;BME280;30314;48.184;11.510;2023-01-25T02:58:37;97305.53;;;-0.80;100.00
7662;BME280;30314;48.184;11.510;2023-01-25T03:01:05;97326.72;;;-0.62;100.00
7662;BME280;30314;48.184;11.510;2023-01-25T03:03:33;97324.78;;;-0.75;100.00
7662;BME280;30314;48.184;11.510;2023-01-25T03:06:00;97323.25;;;-0.84;100.00
7662;BME280;30314;48.184;11.510;2023-01-25T03:08:28;97310.53;;;-0.94;100.00
7662;BME280;30314;48.184;11.510;2023-01-25T03:10:57;97314.00;;;-0.87;100.00
7662;BME280;30314;48.184;11.510;2023-01-25T03:13:28;97312.59;;;-0.89;100.00
7662;BME280;30314;48.184;11.510;2023-01-25T03:15:59;97312.78;;;-0.91;100.00
7662;BME280;30314;48.184;11.510;2023-01-25T03:18:27;97296.41;;;-0.91;100.00
7662;BME280;30314;48.184;11.510;2023-01-25T03:20:55;97308.28;;;-0.82;100.00
7662;BME280;30314;48.184;11.510;2023-01-25T03:23:22;97302.91;;;-0.80;100.00
7662;BME280;30314;48.184;11.510;2023-01-25T03:25:52;97313.47;;;-0.82;100.00
7662;BME280;30314;48.184;11.510;2023-01-25T03:28:19;97302.03;;;-0.88;100.00
7662;BME280;30314;48.184;11.510;2023-01-25T03:30:52;97307.59;;;-0.91;100.00
7662;BME280;30314;48.184;11.510;2023-01-25T03:33:20;97298.88;;;-0.83;100.00
7662;BME280;30314;48.184;11.510;2023-01-25T03:35:50;97304.53;;;-0.94;100.00
7662;BME280;30314;48.184;11.510;2023-01-25T03:38:18;97297.13;;;-0.97;100.00
7662;BME280;30314;48.184;11.510;2023-01-25T03:40:47;97300.00;;;-0.92;100.00
7662;BME280;30314;48.184;11.510;2023-01-25T03:43:15;97300.25;;;-0.87;100.00
7662;BME280;30314;48.184;11.510;2023-01-25T03:45:51;97304.81;;;-0.89;100.00
7662;BME280;30314;48.184;11.510;2023-01-25T03:48:21;97303.28;;;-0.83;100.00
7662;BME280;30314;48.184;11.510;2023-01-25T03:50:50;97293.25;;;-0.87;100.00
7662;BME280;30314;48.184;11.510;2023-01-25T03:53:20;97276.88;;;-0.87;100.00
7662;BME280;30314;48.184;11.510;2023-01-25T03:56:01;97293.78;;;-0.76;100.00
7662;BME280;30314;48.184;11.510;2023-01-25T03:58:30;97294.50;;;-0.82;100.00
7662;BME280;30314;48.184;11.510;2023-01-25T04:00:59;97271.69;;;-1.02;100.00
7662;BME280;30314;48.184;11.510;2023-01-25T04:03:29;97295.59;;;-0.77;100.00
7662;BME280;30314;48.184;11.510;2023-01-25T04:05:58;97294.03;;;-0.71;100.00
7662;BME280;30314;48.184;11.510;2023-01-25T04:08:28;97291.25;;;-0.69;100.00
7662;BME280;30314;48.184;11.510;2023-01-25T04:11:00;97296.13;;;-0.81;100.00
7662;BME280;30314;48.184;11.510;2023-01-25T04:13:28;97291.13;;;-0.98;100.00
7662;BME280;30314;48.184;11.510;2023-01-25T04:15:56;97292.38;;;-0.94;100.00
7662;BME280;30314;48.184;11.510;2023-01-25T04:18:45;97287.97;;;-0.93;100.00
7662;BME280;30314;48.184;11.510;2023-01-25T04:21:13;97280.53;;;-0.81;100.00
7662;BME280;30314;48.184;11.510;2023-01-25T04:23:41;97280.38;;;-0.95;100.00
7662;BME280;30314;48.184;11.510;2023-01-25T04:26:10;97270.19;;;-1.11;100.00
7662;BME280;30314;48.184;11.510;2023-01-25T04:28:39;97285.03;;;-1.05;100.00
7662;BME280;30314;48.184;11.510;2023-01-25T04:31:06;97287.00;;;-0.92;100.00
7662;BME280;30314;48.184;11.510;2023-01-25T04:33:38;97268.03;;;-1.08;100.00
7662;BME280;30314;48.184;11.510;2023-01-25T04:36:08;97274.56;;;-0.97;100.00
7662;BME280;30314;48.184;11.510;2023-01-25T04:38:36;97276.25;;;-0.89;100.00
7662;BME280;30314;48.184;11.510;2023-01-25T04:41:05;97278.84;;;-1.04;100.00
7662;BME280;30314;48.184;11.510;2023-01-25T04:43:33;97248.44;;;-1.10;100.00
7662;BME280;30314;48.184;11.510;2023-01-25T04:46:05;97265.97;;;-0.97;100.00
7662;BME280;30314;48.184;11.510;2023-01-25T04:48:33;97264.06;;;-0.89;100.00
7662;BME280;30314;48.184;11.510;2023-01-25T04:51:04;97263.63;;;-0.92;100.00
7662;BME280;30314;48.184;11.510;2023-01-25T04:53:34;97223.63;;;-1.13;100.00
7662;BME280;30314;48.184;11.510;2023-01-25T04:56:05;97258.72;;;-1.02;100.00
7662;BME280;30314;48.184;11.510;2023-01-25T04:58:42;97251.44;;;-1.07;100.00
7662;BME280;30314;48.184;11.510;2023-01-25T05:01:10;97264.63;;;-1.08;100.00
7662;BME280;30314;48.184;11.510;2023-01-25T05:03:39;97258.72;;;-1.02;100.00
7662;BME280;30314;48.184;11.510;2023-01-25T05:06:14;97260.06;;;-1.06;100.00
7662;BME280;30314;48.184;11.510;2023-01-25T05:08:44;97255.13;;;-1.01;100.00
7662;BME280;30314;48.184;11.510;2023-01-25T05:11:12;97255.66;;;-0.91;100.00
7662;BME280;30314;48.184;11.510;2023-01-25T05:13:48;97236.16;;;-1.02;100.00
7662;BME280;30314;48.184;11.510;2023-01-25T05:16:23;97254.22;;;-0.93;100.00
7662;BME280;30314;48.184;11.510;2023-01-25T05:18:51;97247.16;;;-0.84;100.00
7662;BME280;30314;48.184;11.510;2023-01-25T05:21:21;97233.19;;;-0.98;100.00
7662;BME280;30314;48.184;11.510;2023-01-25T05:24:13;97238.31;;;-1.05;100.00
7662;BME280;30314;48.184;11.510;2023-01-25T05:26:41;97237.22;;;-0.96;100.00
7662;BME280;30314;48.184;11.510;2023-01-25T05:29:47;97235.41;;;-0.95;100.00
7662;BME280;30314;48.184;11.510;2023-01-25T05:32:17;97234.44;;;-0.94;100.00
7662;BME280;30314;48.184;11.510;2023-01-25T05:34:46;97218.78;;;-1.01;100.00
7662;BME280;30314;48.184;11.510;2023-01-25T05:37:17;97244.81;;;-0.94;100.00
7662;BME280;30314;48.184;11.510;2023-01-25T05:39:49;97228.22;;;-1.15;100.00
7662;BME280;30314;48.184;11.510;2023-01-25T05:42:17;97251.81;;;-1.10;100.00
7662;BME280;30314;48.184;11.510;2023-01-25T05:44:46;97246.19;;;-1.14;100.00
7662;BME280;30314;48.184;11.510;2023-01-25T05:47:16;97239.38;;;-1.15;100.00
7662;BME280;30314;48.184;11.510;2023-01-25T05:49:44;97240.13;;;-1.06;100.00
7662;BME280;30314;48.184;11.510;2023-01-25T05:52:19;97242.41;;;-0.96;100.00
7662;BME280;30314;48.184;11.510;2023-01-25T05:54:48;97248.53;;;-1.04;100.00
7662;BME280;30314;48.184;11.510;2023-01-25T05:57:16;97239.13;;;-1.05;100.00
7662;BME280;30314;48.184;11.510;2023-01-25T05:59:44;97237.84;;;-1.09;100.00
7662;BME280;30314;48.184;11.510;2023-01-25T06:02:16;97235.53;;;-1.04;100.00
7662;BME280;30314;48.184;11.510;2023-01-25T06:04:44;97237.16;;;-1.03;100.00
7662;BME280;30314;48.184;11.510;2023-01-25T06:07:13;97236.31;;;-1.03;100.00
7662;BME280;30314;48.184;11.510;2023-01-25T06:09:41;97231.94;;;-1.03;100.00
7662;BME280;30314;48.184;11.510;2023-01-25T06:12:10;97238.31;;;-1.05;100.00
7662;BME280;30314;48.184;11.510;2023-01-25T06:14:37;97235.00;;;-1.14;100.00
7662;BME280;30314;48.184;11.510;2023-01-25T06:17:05;97229.56;;;-1.19;100.00
7662;BME280;30314;48.184;11.510;2023-01-25T06:19:54;97233.94;;;-1.20;100.00
7662;BME280;30314;48.184;11.510;2023-01-25T06:22:33;97230.28;;;-1.10;100.00
7662;BME280;30314;48.184;11.510;2023-01-25T06:25:00;97224.00;;;-1.16;100.00
7662;BME280;30314;48.184;11.510;2023-01-25T06:27:29;97217.47;;;-1.12;100.00
7662;BME280;30314;48.184;11.510;2023-01-25T06:29:57;97224.34;;;-1.04;100.00
7662;BME280;30314;48.184;11.510;2023-01-25T06:32:30;97215.63;;;-0.96;100.00
7662;BME280;30314;48.184;11.510;2023-01-25T06:34:58;97213.72;;;-0.88;100.00
7662;BME280;30314;48.184;11.510;2023-01-25T06:37:26;97213.59;;;-1.01;100.00
7662;BME280;30314;48.184;11.510;2023-01-25T06:39:53;97208.59;;;-1.03;100.00
7662;BME280;30314;48.184;11.510;2023-01-25T06:42:22;97206.69;;;-1.09;100.00
7662;BME280;30314;48.184;11.510;2023-01-25T06:44:52;97205.47;;;-1.13;100.00
7662;BME280;30314;48.184;11.510;2023-01-25T06:47:19;97204.22;;;-1.17;100.00
7662;BME280;30314;48.184;11.510;2023-01-25T06:49:47;97205.03;;;-1.17;100.00
7662;BME280;30314;48.184;11.510;2023-01-25T06:52:14;97210.28;;;-1.10;100.00
7662;BME280;30314;48.184;11.510;2023-01-25T06:54:42;97208.22;;;-1.15;100.00
7662;BME280;30314;48.184;11.510;2023-01-25T06:57:10;97198.13;;;-1.09;100.00
7662;BME280;30314;48.184;11.510;2023-01-25T06:59:38;97177.47;;;-1.18;100.00
7662;BME280;30314;48.184;11.510;2023-01-25T07:02:08;97191.66;;;-0.98;100.00
7662;BME280;30314;48.184;11.510;2023-01-25T07:04:36;97187.44;;;-1.00;100.00
7662;BME280;30314;48.184;11.510;2023-01-25T07:07:06;97191.41;;;-1.04;100.00
7662;BME280;30314;48.184;11.510;2023-01-25T07:09:34;97184.16;;;-1.08;100.00
7662;BME280;30314;48.184;11.510;2023-01-25T07:12:02;97192.66;;;-1.15;100.00
7662;BME280;30314;48.184;11.510;2023-01-25T07:14:30;97177.47;;;-1.18;100.00
7662;BME280;30314;48.184;11.510;2023-01-25T07:16:58;97179.44;;;-1.35;100.00
7662;BME280;30314;48.184;11.510;2023-01-25T07:19:30;97147.69;;;-1.37;100.00
7662;BME280;30314;48.184;11.510;2023-01-25T07:21:58;97181.13;;;-1.12;100.00
7662;BME280;30314;48.184;11.510;2023-01-25T07:24:25;97183.34;;;-1.09;100.00
7662;BME280;30314;48.184;11.510;2023-01-25T07:26:55;97177.97;;;-1.07;100.00
7662;BME280;30314;48.184;11.510;2023-01-25T07:29:22;97188.81;;;-1.04;100.00
7662;BME280;30314;48.184;11.510;2023-01-25T07:31:50;97184.47;;;-0.96;100.00
7662;BME280;30314;48.184;11.510;2023-01-25T07:34:18;97187.19;;;-1.05;100.00
7662;BME280;30314;48.184;11.510;2023-01-25T07:36:47;97174.94;;;-1.11;100.00
7662;BME280;30314;48.184;11.510;2023-01-25T07:39:15;97182.34;;;-1.08;100.00
7662;BME280;30314;48.184;11.510;2023-01-25T07:41:42;97181.94;;;-1.11;100.00
7662;BME280;30314;48.184;11.510;2023-01-25T07:44:12;97181.28;;;-1.14;100.00
7662;BME280;30314;48.184;11.510;2023-01-25T07:46:45;97185.75;;;-1.07;100.00
7662;BME280;30314;48.184;11.510;2023-01-25T07:49:13;97192.66;;;-1.15;100.00
7662;BME280;30314;48.184;11.510;2023-01-25T07:51:41;97176.22;;;-1.37;100.00
7662;BME280;30314;48.184;11.510;2023-01-25T07:54:10;97193.69;;;-1.31;100.00
7662;BME280;30314;48.184;11.510;2023-01-25T07:56:38;97196.00;;;-1.21;100.00
7662;BME280;30314;48.184;11.510;2023-01-25T07:59:06;97178.75;;;-1.29;100.00
7662;BME280;30314;48.184;11.510;2023-01-25T08:01:36;97188.91;;;-1.27;100.00
7662;BME280;30314;48.184;11.510;2023-01-25T08:04:04;97196.81;;;-1.35;100.00
7662;BME280;30314;48.184;11.510;2023-01-25T08:06:33;97202.88;;;-1.28;100.00
7662;BME280;30314;48.184;11.510;2023-01-25T08:09:06;97166.22;;;-1.55;100.00
7662;BME280;30314;48.184;11.510;2023-01-25T08:11:36;97200.47;;;-1.30;100.00
7662;BME280;30314;48.184;11.510;2023-01-25T08:14:04;97198.50;;;-1.28;100.00
7662;BME280;30314;48.184;11.510;2023-01-25T08:16:32;97184.38;;;-1.40;100.00
7662;BME280;30314;48.184;11.510;2023-01-25T08:19:01;97177.22;;;-1.38;100.00
7662;BME280;30314;48.184;11.510;2023-01-25T08:21:31;97144.78;;;-1.64;100.00
7662;BME280;30314;48.184;11.510;2023-01-25T08:24:00;97176.84;;;-1.35;100.00
7662;BME280;30314;48.184;11.510;2023-01-25T08:26:28;97192.09;;;-1.32;100.00
7662;BME280;30314;48.184;11.510;2023-01-25T08:28:57;97148.59;;;-1.60;100.00
7662;BME280;30314;48.184;11.510;2023-01-25T08:31:27;97184.47;;;-1.33;100.00
7662;BME280;30314;48.184;11.510;2023-01-25T08:33:56;97187.13;;;-1.26;100.00
7662;BME280;30314;48.184;11.510;2023-01-25T08:36:24;97172.41;;;-1.41;100.00
7662;BME280;30314;48.184;11.510;2023-01-25T08:38:55;97180.59;;;-1.22;100.00
7662;BME280;30314;48.184;11.510;2023-01-25T08:41:24;97182.56;;;-1.24;100.00
7662;BME280;30314;48.184;11.510;2023-01-25T08:43:53;97174.78;;;-1.24;100.00
7662;BME280;30314;48.184;11.510;2023-01-25T08:46:25;97173.00;;;-1.24;100.00
7662;BME280;30314;48.184;11.510;2023-01-25T08:48:56;97176.75;;;-1.26;100.00
7662;BME280;30314;48.184;11.510;2023-01-25T08:51:25;97178.91;;;-1.30;100.00
7662;BME280;30314;48.184;11.510;2023-01-25T08:53:53;97173.72;;;-1.30;100.00
7662;BME280;30314;48.184;11.510;2023-01-25T08:56:21;97177.75;;;-1.28;100.00
7662;BME280;30314;48.184;11.510;2023-01-25T08:58:49;97164.41;;;-1.39;100.00
7662;BME280;30314;48.184;11.510;2023-01-25T09:01:18;97161.03;;;-1.25;100.00
7662;BME280;30314;48.184;11.510;2023-01-25T09:03:49;97170.13;;;-1.14;100.00
7662;BME280;30314;48.184;11.510;2023-01-25T09:06:17;97149.19;;;-1.28;100.00
7662;BME280;30314;48.184;11.510;2023-01-25T09:08:46;97162.88;;;-1.19;100.00
7662;BME280;30314;48.184;11.510;2023-01-25T09:11:15;97158.88;;;-1.36;100.00
7662;BME280;30314;48.184;11.510;2023-01-25T09:13:43;97085.41;;;-1.74;100.00
7662;BME280;30314;48.184;11.510;2023-01-25T09:16:13;97145.66;;;-1.05;100.00
7662;BME280;30314;48.184;11.510;2023-01-25T09:18:43;97156.06;;;-1.05;100.00
7662;BME280;30314;48.184;11.510;2023-01-25T09:21:13;97159.63;;;-1.06;100.00
7662;BME280;30314;48.184;11.510;2023-01-25T09:23:41;97145.06;;;-1.22;100.00
7662;BME280;30314;48.184;11.510;2023-01-25T09:26:23;97151.41;;;-1.09;100.00
7662;BME280;30314;48.184;11.510;2023-01-25T09:28:52;97157.31;;;-1.16;100.00
7662;BME280;30314;48.184;11.510;2023-01-25T09:31:21;97148.47;;;-1.21;100.00
7662;BME280;30314;48.184;11.510;2023-01-25T09:34:00;97148.59;;;-1.08;100.00
7662;BME280;30314;48.184;11.510;2023-01-25T09:36:29;97151.28;;;-1.01;100.00
7662;BME280;30314;48.184;11.510;2023-01-25T09:38:57;97152.47;;;-1.04;100.00
7662;BME280;30314;48.184;11.510;2023-01-25T09:44:44;97154.72;;;-1.16;100.00
7662;BME280;30314;48.184;11.510;2023-01-25T09:47:22;97148.84;;;-1.24;100.00
7662;BME280;30314;48.184;11.510;2023-01-25T09:50:16;97141.88;;;-1.24;100.00
7662;BME280;30314;48.184;11.510;2023-01-25T09:52:58;97147.53;;;-1.14;100.00
7662;BME280;30314;48.184;11.510;2023-01-25T09:55:32;97147.31;;;-1.19;100.00
7662;BME280;30314;48.184;11.510;2023-01-25T09:58:01;97154.03;;;-1.24;100.00
7662;BME280;30314;48.184;11.510;2023-01-25T10:00:33;97148.38;;;-1.28;100.00
7662;BME280;30314;48.184;11.510;2023-01-25T10:03:04;97143.09;;;-1.20;100.00
7662;BME280;30314;48.184;11.510;2023-01-25T10:05:42;97145.53;;;-1.18;100.00
7662;BME280;30314;48.184;11.510;2023-01-25T10:08:19;97143.78;;;-1.33;100.00
7662;BME280;30314;48.184;11.510;2023-01-25T10:10:55;97110.34;;;-1.21;100.00
7662;BME280;30314;48.184;11.510;2023-01-25T10:13:26;97125.09;;;-1.21;100.00
7662;BME280;30314;48.184;11.510;2023-01-25T10:16:01;97136.75;;;-1.17;100.00
7662;BME280;30314;48.184;11.510;2023-01-25T10:18:37;97131.41;;;-1.31;100.00
7662;BME280;30314;48.184;11.510;2023-01-25T10:21:10;97127.00;;;-1.30;100.00
7662;BME280;30314;48.184;11.510;2023-01-25T10:24:05;97132.19;;;-1.30;100.00
7662;BME280;30314;48.184;11.510;2023-01-25T10:26:39;97132.72;;;-1.20;100.00
7662;BME280;30314;48.184;11.510;2023-01-25T10:29:11;97118.72;;;-1.04;100.00
7662;BME280;30314;48.184;11.510;2023-01-25T10:31:45;97107.13;;;-1.23;100.00
7662;BME280;30314;48.184;11.510;2023-01-25T10:34:18;97093.16;;;-1.22;100.00
7662;BME280;30314;48.184;11.510;2023-01-25T10:36:49;97098.22;;;-1.14;100.00
7662;BME280;30314;48.184;11.510;2023-01-25T10:39:20;97098.81;;;-1.18;100.00
7662;BME280;30314;48.184;11.510;2023-01-25T10:41:50;97091.50;;;-1.08;100.00
7662;BME280;30314;48.184;11.510;2023-01-25T10:44:24;97074.44;;;-1.39;100.00
7662;BME280;30314;48.184;11.510;2023-01-25T10:46:56;97091.19;;;-1.20;100.00
7662;BME280;30314;48.184;11.510;2023-01-25T10:49:37;97087.06;;;-1.14;100.00
7662;BME280;30314;48.184;11.510;2023-01-25T10:52:12;97067.00;;;-1.42;100.00
7662;BME280;30314;48.184;11.510;2023-01-25T10:54:42;97079.13;;;-1.28;100.00
7662;BME280;30314;48.184;11.510;2023-01-25T10:57:13;97082.44;;;-1.34;100.00
7662;BME280;30314;48.184;11.510;2023-01-25T10:59:44;97085.03;;;-1.34;100.00
7662;BME280;30314;48.184;11.510;2023-01-25T11:02:33;97076.66;;;-1.36;100.00
7662;BME280;30314;48.184;11.510;2023-01-25T11:05:28;97065.25;;;-1.20;100.00
7662;BME280;30314;48.184;11.510;2023-01-25T11:07:57;97061.53;;;-1.32;100.00
7662;BME280;30314;48.184;11.510;2023-01-25T11:10:29;97057.88;;;-1.38;100.00
7662;BME280;30314;48.184;11.510;2023-01-25T11:13:20;97051.28;;;-1.19;100.00
7662;BME280;30314;48.184;11.510;2023-01-25T11:15:50;97040.59;;;-1.31;100.00
7662;BME280;30314;48.184;11.510;2023-01-25T11:18:21;97045.78;;;-1.31;100.00
7662;BME280;30314;48.184;11.510;2023-01-25T11:21:05;97050.34;;;-1.33;100.00
7662;BME280;30314;48.184;11.510;2023-01-25T11:23:33;97046.06;;;-1.19;100.00
7662;BME280;30314;48.184;11.510;2023-01-25T11:26:12;97033.03;;;-1.25;100.00
7662;BME280;30314;48.184;11.510;2023-01-25T11:28:40;97038.41;;;-1.05;100.00
7662;BME280;30314;48.184;11.510;2023-01-25T11:31:11;97032.59;;;-1.07;100.00
7662;BME280;30314;48.184;11.510;2023-01-25T11:33:40;97036.88;;;-1.21;100.00
7662;BME280;30314;48.184;11.510;2023-01-25T11:36:20;97024.88;;;-1.22;100.00
7662;BME280;30314;48.184;11.510;2023-01-25T11:39:02;96991.88;;;-1.50;100.00
7662;BME280;30314;48.184;11.510;2023-01-25T11:41:47;96999.69;;;-1.29;100.00
7662;BME280;30314;48.184;11.510;2023-01-25T11:44:39;97001.53;;;-1.22;100.00
7662;BME280;30314;48.184;11.510;2023-01-25T11:47:18;97000.91;;;-1.24;100.00
7662;BME280;30314;48.184;11.510;2023-01-25T11:49:55;97010.19;;;-1.15;100.00
7662;BME280;30314;48.184;11.510;2023-01-25T11:52:32;96978.53;;;-1.25;100.00
7662;BME280;30314;48.184;11.510;2023-01-25T11:55:14;96978.97;;;-1.22;100.00
7662;BME280;30314;48.184;11.510;2023-01-25T11:57:55;96977.00;;;-1.20;100.00
7662;BME280;30314;48.184;11.510;2023-01-25T12:00:38;96973.22;;;-1.17;100.00
7662;BME280;30314;48.184;11.510;2023-01-25T12:03:24;96964.44;;;-1.16;100.00
7662;BME280;30314;48.184;11.510;2023-01-25T12:05:59;96962.84;;;-1.17;100.00
7662;BME280;30314;48.184;11.510;2023-01-25T12:08:54;96958.78;;;-1.26;100.00
7662;BME280;30314;48.184;11.510;2023-01-25T12:11:40;96950.66;;;-1.17;100.00
7662;BME280;30314;48.184;11.510;2023-01-25T12:14:25;96944.47;;;-1.16;100.00
7662;BME280;30314;48.184;11.510;2023-01-25T12:17:17;96939.28;;;-1.16;100.00
7662;BME280;30314;48.184;11.510;2023-01-25T12:20:22;96937.94;;;-1.11;100.00
7662;BME280;30314;48.184;11.510;2023-01-25T12:23:16;96933.25;;;-0.94;100.00
7662;BME280;30314;48.184;11.510;2023-01-25T12:25:55;96927.69;;;-0.91;100.00
7662;BME280;30314;48.184;11.510;2023-01-25T12:28:29;96922.41;;;-1.05;100.00
7662;BME280;30314;48.184;11.510;2023-01-25T12:31:03;96926.78;;;-1.05;100.00
7662;BME280;30314;48.184;11.510;2023-01-25T12:33:37;96917.75;;;-1.16;100.00
7662;BME280;30314;48.184;11.510;2023-01-25T12:36:12;96918.97;;;-1.12;100.00
7662;BME280;30314;48.184;11.510;2023-01-25T12:38:44;96817.72;;;-1.76;100.00
7662;BME280;30314;48.184;11.510;2023-01-25T12:41:22;96908.44;;;-1.04;100.00
7662;BME280;30314;48.184;11.510;2023-01-25T12:43:56;96903.59;;;-1.07;100.00
7662;BME280;30314;48.184;11.510;2023-01-25T12:46:32;96904.00;;;-1.10;100.00
7662;BME280;30314;48.184;11.510;2023-01-25T12:49:10;96900.50;;;-1.24;100.00
7662;BME280;30314;48.184;11.510;2023-01-25T12:51:42;96910.66;;;-1.01;100.00
7662;BME280;30314;48.184;11.510;2023-01-25T12:54:16;96805.41;;;-1.67;100.00
7662;BME280;30314;48.184;11.510;2023-01-25T12:56:51;96798.53;;;-1.81;100.00
7662;BME280;30314;48.184;11.510;2023-01-25T12:59:30;96891.81;;;-1.09;100.00
7662;BME280;30314;48.184;11.510;2023-01-25T13:02:12;96881.31;;;-1.30;100.00
7662;BME280;30314;48.184;11.510;2023-01-25T13:04:54;96883.59;;;-1.13;100.00
7662;BME280;30314;48.184;11.510;2023-01-25T13:07:31;96886.97;;;-1.19;100.00
7662;BME280;30314;48.184;11.510;2023-01-25T13:10:02;96862.44;;;-1.45;100.00
7662;BME280;30314;48.184;11.510;2023-01-25T13:12:50;96882.91;;;-1.29;100.00
7662;BME280;30314;48.184;11.510;2023-01-25T13:15:38;96872.00;;;-1.17;100.00
7662;BME280;30314;48.184;11.510;2023-01-25T13:18:36;96866.34;;;-1.28;100.00
7662;BME280;30314;48.184;11.510;2023-01-25T13:21:09;96875.13;;;-1.29;100.00